createdAt,value
2022-11-21T00:02:00.715Z,100200.56
2022-11-21T00:04:30.319Z,100205.50
2022-11-21T00:06:59.847Z,100200.66
2022-11-21T00:09:29.817Z,100205.13
2022-11-21T00:12:01.914Z,100199.28
2022-11-21T00:14:31.300Z,100206.75
2022-11-21T00:17:00.748Z,100209.66
2022-11-21T00:19:30.231Z,100208.00
2022-11-21T00:21:59.640Z,100204.59
2022-11-21T00:24:29.309Z,100198.88
2022-11-21T00:27:01.595Z,100194.50
2022-11-21T00:29:31.054Z,100202.31
2022-11-21T00:32:00.572Z,100206.00
2022-11-21T00:34:30.302Z,100189.56
2022-11-21T00:36:59.781Z,100194.00
2022-11-21T00:39:29.416Z,100188.03
2022-11-21T00:42:01.554Z,100188.41
2022-11-21T00:44:31.751Z,100182.97
2022-11-21T00:47:01.270Z,100181.22
2022-11-21T00:49:30.756Z,100178.66
2022-11-21T00:52:00.256Z,100181.94
2022-11-21T00:54:29.950Z,100171.59
2022-11-21T00:57:02.149Z,100178.66
2022-11-21T00:59:31.724Z,100175.25
2022-11-21T01:02:01.427Z,100171.34
2022-11-21T01:04:33.567Z,100169.28
2022-11-21T01:07:03.490Z,100163.97
2022-11-21T01:09:33.399Z,100173.31
2022-11-21T01:12:05.494Z,100175.59
2022-11-21T01:14:34.978Z,100167.75
2022-11-21T01:17:04.489Z,100173.94
2022-11-21T01:19:33.990Z,100177.44
2022-11-21T01:22:03.539Z,100170.72
2022-11-21T01:24:33.131Z,100174.47
2022-11-21T01:27:05.160Z,100166.16
2022-11-21T01:29:34.630Z,100158.59
2022-11-21T01:32:04.117Z,100157.31
2022-11-21T01:34:33.602Z,100149.03
2022-11-21T01:37:03.097Z,100148.78
2022-11-21T01:39:32.563Z,100148.03
2022-11-21T01:42:02.073Z,100159.84
2022-11-21T01:44:53.551Z,100151.41
2022-11-21T01:47:23.682Z,100152.78
2022-11-21T01:49:54.556Z,100145.97
2022-11-21T01:52:25.863Z,100147.63
2022-11-21T01:54:57.931Z,100143.59
2022-11-21T01:57:30.478Z,100139.44
2022-11-21T02:00:04.686Z,100142.16
2022-11-21T02:02:36.646Z,100144.44
2022-11-21T02:05:09.068Z,100145.59
2022-11-21T02:07:42.656Z,100146.50
2022-11-21T02:10:13.334Z,100143.06
2022-11-21T02:12:46.488Z,100149.97
2022-11-21T02:15:18.902Z,100147.25
2022-11-21T02:17:48.336Z,100150.03
2022-11-21T02:20:18.984Z,100150.59
2022-11-21T02:22:54.552Z,100156.13
2022-11-21T02:25:28.843Z,100154.97
2022-11-21T02:28:01.258Z,100148.63
2022-11-21T02:30:31.720Z,100143.09
2022-11-21T02:33:01.741Z,100149.31
2022-11-21T02:35:31.292Z,100145.56
2022-11-21T02:38:02.559Z,100143.00
2022-11-21T02:40:36.518Z,100144.50
2022-11-21T02:43:11.015Z,100149.53
2022-11-21T02:45:42.549Z,100143.00
2022-11-21T02:48:12.602Z,100143.28
2022-11-21T02:50:43.481Z,100141.19
2022-11-21T02:53:14.211Z,100143.72
2022-11-21T02:55:46.393Z,100137.47
2022-11-21T02:58:15.887Z,100134.56
2022-11-21T03:00:45.525Z,100127.16
2022-11-21T03:03:15.126Z,100126.53
2022-11-21T03:05:44.915Z,100122.28
2022-11-21T03:08:15.373Z,100121.56
2022-11-21T03:10:47.358Z,100128.06
2022-11-21T03:13:16.990Z,100127.72
2022-11-21T03:15:46.453Z,100120.09
2022-11-21T03:18:16.282Z,100116.50
2022-11-21T03:20:45.794Z,100112.19
2022-11-21T03:23:15.735Z,100114.50
2022-11-21T03:25:47.755Z,100101.59
2022-11-21T03:28:17.197Z,100104.88
2022-11-21T03:30:46.669Z,100107.69
2022-11-21T03:33:16.756Z,100103.41
2022-11-21T03:35:46.266Z,100110.91
2022-11-21T03:38:15.677Z,100109.75
2022-11-21T03:40:47.664Z,100109.94
2022-11-21T03:43:17.207Z,100111.09
2022-11-21T03:45:49.006Z,100111.03
2022-11-21T03:48:18.574Z,100111.03
2022-11-21T03:50:48.067Z,100104.63
2022-11-21T03:53:17.619Z,100107.31
2022-11-21T03:55:49.611Z,100116.50
2022-11-21T03:58:19.311Z,100110.91
2022-11-21T04:00:50.378Z,100110.97
2022-11-21T04:03:21.407Z,100110.22
2022-11-21T04:05:50.926Z,100108.91
2022-11-21T04:08:20.396Z,100115.41
2022-11-21T04:10:53.597Z,100113.69
2022-11-21T04:13:23.095Z,100122.25
2022-11-21T04:15:52.691Z,100118.13
2022-11-21T04:18:22.068Z,100121.03
2022-11-21T04:20:51.551Z,100114.84
2022-11-21T04:23:20.957Z,100126.75
2022-11-21T04:25:53.087Z,100124.22
2022-11-21T04:28:22.879Z,100123.81
2022-11-21T04:30:54.889Z,100129.22
2022-11-21T04:33:24.892Z,100126.81
2022-11-21T04:35:54.450Z,100127.38
2022-11-21T04:38:23.893Z,100129.56
2022-11-21T04:40:55.853Z,100126.44
2022-11-21T04:43:25.275Z,100136.78
2022-11-21T04:45:54.688Z,100138.28
2022-11-21T04:48:24.798Z,100134.47
2022-11-21T04:50:54.197Z,100141.22
2022-11-21T04:53:23.597Z,100136.63
2022-11-21T04:55:55.647Z,100135.13
2022-11-21T04:58:25.067Z,100141.94
2022-11-21T05:00:54.530Z,100142.50
2022-11-21T05:03:23.943Z,100144.84
2022-11-21T05:05:53.545Z,100141.28
2022-11-21T05:08:22.908Z,100137.28
2022-11-21T05:11:07.360Z,100138.50
2022-11-21T05:13:36.809Z,100133.25
2022-11-21T05:16:06.627Z,100139.66
2022-11-21T05:18:36.095Z,100136.31
2022-11-21T05:21:06.012Z,100144.44
2022-11-21T05:23:35.423Z,100139.84
2022-11-21T05:26:07.384Z,100143.53
2022-11-21T05:28:36.890Z,100145.50
2022-11-21T05:31:06.342Z,100145.34
2022-11-21T05:33:35.794Z,100148.63
2022-11-21T05:36:05.198Z,100146.44
2022-11-21T05:38:34.575Z,100148.25
2022-11-21T05:41:03.935Z,100151.78
2022-11-21T05:43:48.403Z,100148.97
2022-11-21T05:46:19.082Z,100130.44
2022-11-21T05:48:49.640Z,100138.28
2022-11-21T05:51:19.596Z,100139.59
2022-11-21T05:53:49.916Z,100144.59
2022-11-21T05:56:20.667Z,100149.38
2022-11-21T05:58:52.689Z,100160.06
2022-11-21T06:01:42.873Z,100158.00
2022-11-21T06:04:10.294Z,100160.53
2022-11-21T06:06:40.100Z,100147.56
2022-11-21T06:09:09.544Z,100155.47
2022-11-21T06:11:38.955Z,100142.88
2022-11-21T06:14:10.939Z,100144.75
2022-11-21T06:16:40.382Z,100153.97
2022-11-21T06:19:09.972Z,100141.97
2022-11-21T06:21:39.370Z,100142.13
2022-11-21T06:24:10.217Z,100133.56
2022-11-21T06:26:39.585Z,100139.47
2022-11-21T06:29:13.614Z,100135.47
2022-11-21T06:31:42.987Z,100131.19
2022-11-21T06:34:12.433Z,100133.56
2022-11-21T06:36:42.309Z,100136.06
2022-11-21T06:39:11.706Z,100121.41
2022-11-21T06:41:41.082Z,100131.34
2022-11-21T06:44:13.079Z,100142.97
2022-11-21T06:46:45.828Z,100136.78
2022-11-21T06:49:17.792Z,100137.38
2022-11-21T06:51:47.631Z,100137.53
2022-11-21T06:54:17.609Z,100122.25
2022-11-21T06:56:46.982Z,100132.34
2022-11-21T06:59:19.293Z,100139.13
2022-11-21T07:01:48.822Z,100135.91
2022-11-21T07:04:18.211Z,100143.53
2022-11-21T07:06:47.636Z,100141.50
2022-11-21T07:09:32.648Z,100137.19
2022-11-21T07:12:23.151Z,100132.16
2022-11-21T07:14:52.496Z,100134.56
2022-11-21T07:17:21.897Z,100139.53
2022-11-21T07:19:51.288Z,100135.06
2022-11-21T07:22:21.131Z,100131.84
2022-11-21T07:24:50.500Z,100128.81
2022-11-21T07:27:19.871Z,100130.94
2022-11-21T07:29:49.278Z,100133.00
2022-11-21T07:32:21.266Z,100129.78
2022-11-21T07:34:50.625Z,100131.53
2022-11-21T07:37:20.082Z,100129.16
2022-11-21T07:39:49.492Z,100132.69
2022-11-21T07:42:18.945Z,100133.25
2022-11-21T07:44:48.446Z,100132.03
2022-11-21T07:47:17.882Z,100130.13
2022-11-21T07:49:49.863Z,100130.16
2022-11-21T07:52:19.294Z,100128.25
2022-11-21T07:54:48.698Z,100129.31
2022-11-21T07:57:18.098Z,100120.28
2022-11-21T07:59:47.477Z,100124.25
2022-11-21T08:02:21.254Z,100128.41
2022-11-21T08:04:53.494Z,100120.69
2022-11-21T08:07:24.225Z,100126.94
2022-11-21T08:09:53.751Z,100131.81
2022-11-21T08:12:23.403Z,100126.34
2022-11-21T08:14:55.556Z,100127.38
2022-11-21T08:17:24.984Z,100128.53
2022-11-21T08:19:58.212Z,100129.16
2022-11-21T08:22:27.639Z,100128.81
2022-11-21T08:24:57.024Z,100130.25
2022-11-21T08:27:26.524Z,100128.44
2022-11-21T08:29:55.926Z,100135.09
2022-11-21T08:32:25.288Z,100123.25
2022-11-21T08:34:57.275Z,100129.59
2022-11-21T08:37:26.666Z,100131.50
2022-11-21T08:39:56.077Z,100133.00
2022-11-21T08:42:25.482Z,100135.66
2022-11-21T08:44:54.968Z,100129.44
2022-11-21T08:47:24.382Z,100136.53
2022-11-21T08:49:53.795Z,100128.31
2022-11-21T08:52:25.824Z,100131.13
2022-11-21T08:54:55.246Z,100119.03
2022-11-21T08:57:24.661Z,100123.53
2022-11-21T08:59:54.058Z,100123.69
2022-11-21T09:02:23.477Z,100123.97
2022-11-21T09:04:53.511Z,100129.81
2022-11-21T09:07:25.549Z,100125.56
2022-11-21T09:09:54.971Z,100124.44
2022-11-21T09:12:24.429Z,100129.50
2022-11-21T09:15:06.397Z,100130.78
2022-11-21T09:17:48.261Z,100128.69
2022-11-21T09:20:18.047Z,100125.81
2022-11-21T09:22:50.185Z,100141.19
2022-11-21T09:25:19.873Z,100142.63
2022-11-21T09:27:49.346Z,100147.03
2022-11-21T09:30:18.934Z,100144.03
2022-11-21T09:32:48.341Z,100157.41
2022-11-21T09:35:17.842Z,100147.06
2022-11-21T09:37:51.514Z,100145.31
2022-11-21T09:40:21.545Z,100140.50
2022-11-21T09:43:06.483Z,100148.31
2022-11-21T09:45:37.371Z,100144.03
2022-11-21T09:48:12.054Z,100153.25
2022-11-21T09:51:14.145Z,100150.63
2022-11-21T09:53:40.479Z,100153.13
2022-11-21T09:56:14.237Z,100153.63
2022-11-21T09:58:47.114Z,100158.28
2022-11-21T10:01:19.075Z,100162.91
2022-11-21T10:03:49.918Z,100159.84
2022-11-21T10:06:22.796Z,100153.75
2022-11-21T10:08:59.904Z,100163.34
2022-11-21T10:12:00.385Z,100170.91
2022-11-21T10:14:39.761Z,100180.06
2022-11-21T10:17:20.901Z,100180.41
2022-11-21T10:20:10.229Z,100182.66
2022-11-21T10:22:53.861Z,100187.09
2022-11-21T10:25:27.852Z,100198.97
2022-11-21T10:28:00.129Z,100199.28
2022-11-21T10:30:29.865Z,100198.25
2022-11-21T10:33:01.410Z,100205.81
2022-11-21T10:35:36.649Z,100210.59
2022-11-21T10:38:20.467Z,100216.41
2022-11-21T10:40:54.412Z,100212.56
2022-11-21T10:43:44.047Z,100211.50
2022-11-21T10:46:14.511Z,100220.47
2022-11-21T10:48:43.930Z,100224.44
2022-11-21T10:51:28.935Z,100232.31
2022-11-21T10:54:21.732Z,100234.34
2022-11-21T10:56:55.015Z,100233.56
2022-11-21T10:59:30.733Z,100240.97
2022-11-21T11:02:02.229Z,100236.38
2022-11-21T11:04:40.698Z,100237.66
2022-11-21T11:07:27.232Z,100233.38
2022-11-21T11:10:17.343Z,100232.94
2022-11-21T11:13:08.701Z,100230.88
2022-11-21T11:16:01.759Z,100234.03
2022-11-21T11:18:31.512Z,100228.28
2022-11-21T11:21:15.102Z,100240.16
2022-11-21T11:23:44.963Z,100240.66
2022-11-21T11:26:24.481Z,100232.88
2022-11-21T11:28:58.237Z,100221.59
2022-11-21T11:31:27.705Z,100220.91
2022-11-21T11:33:58.531Z,100218.38
2022-11-21T11:36:40.022Z,100222.94
2022-11-21T11:39:17.084Z,100223.59
2022-11-21T11:42:16.773Z,100233.09
2022-11-21T11:45:07.124Z,100233.09
2022-11-21T11:47:41.883Z,100237.06
2022-11-21T11:50:15.656Z,100236.88
2022-11-21T11:52:57.100Z,100237.53
2022-11-21T11:55:29.618Z,100243.91
2022-11-21T11:58:02.565Z,100247.47
2022-11-21T12:00:41.624Z,100248.50
2022-11-21T12:03:16.120Z,100251.69
2022-11-21T12:05:56.755Z,100250.91
2022-11-21T12:08:45.999Z,100252.25
2022-11-21T12:11:42.505Z,100244.91
2022-11-21T12:14:48.443Z,100255.66
2022-11-21T12:17:23.197Z,100243.03
2022-11-21T12:19:53.551Z,100244.47
2022-11-21T12:22:23.600Z,100265.59
2022-11-21T12:24:53.035Z,100269.91
2022-11-21T12:27:29.594Z,100281.69
2022-11-21T12:30:12.011Z,100286.09
2022-11-21T12:32:55.693Z,100289.38
2022-11-21T12:35:39.284Z,100303.06
2022-11-21T12:38:17.690Z,100301.56
2022-11-21T12:40:51.512Z,100297.94
2022-11-21T12:43:25.563Z,100303.41
2022-11-21T12:45:59.071Z,100309.16
2022-11-21T12:48:53.664Z,100311.44
2022-11-21T12:52:01.287Z,100294.44
2022-11-21T12:55:04.932Z,100247.41
2022-11-21T12:57:44.808Z,100237.91
2022-11-21T13:00:20.315Z,100178.03
2022-11-21T13:03:08.467Z,100107.31
2022-11-21T13:05:43.689Z,100054.19
2022-11-21T13:08:17.653Z,100026.09
2022-11-21T13:11:13.799Z,99987.88
2022-11-21T13:13:45.312Z,99973.59
2022-11-21T13:16:36.628Z,99956.69
2022-11-21T13:19:15.745Z,99938.16
2022-11-21T13:21:50.508Z,99951.03
2022-11-21T13:24:50.310Z,99949.09
2022-11-21T13:27:33.549Z,99894.66
2022-11-21T13:30:24.599Z,99817.19
2022-11-21T13:32:54.997Z,99811.97
2022-11-21T13:36:09.362Z,99798.03
2022-11-21T13:39:08.857Z,99765.34
2022-11-21T13:42:20.570Z,99725.66
2022-11-21T13:44:50.903Z,99678.75
2022-11-21T13:47:46.176Z,99690.44
2022-11-21T13:50:24.957Z,99678.63
2022-11-21T13:53:01.966Z,99668.91
2022-11-21T13:55:51.621Z,99680.13
2022-11-21T13:58:33.324Z,99726.69
2022-11-21T14:01:24.516Z,99772.00
2022-11-21T14:04:08.907Z,99773.38
2022-11-21T14:06:39.924Z,99813.94
2022-11-21T14:09:20.339Z,99843.09
2022-11-21T14:11:51.643Z,99860.47
2022-11-21T14:14:42.417Z,99881.75
2022-11-21T14:17:32.800Z,99891.84
2022-11-21T14:20:04.004Z,99897.34
2022-11-21T14:22:43.854Z,99917.91
2022-11-21T14:25:19.472Z,99955.41
2022-11-21T14:27:50.790Z,99996.59
2022-11-21T14:30:37.855Z,100034.59
2022-11-21T14:33:29.182Z,100062.22
2022-11-21T14:36:02.230Z,100088.66
2022-11-21T14:38:33.252Z,100104.34
2022-11-21T14:41:35.279Z,100109.84
2022-11-21T14:44:20.467Z,100124.53
2022-11-21T14:46:53.572Z,100137.81
2022-11-21T14:49:26.391Z,100154.09
2022-11-21T14:52:04.265Z,100157.88
2022-11-21T14:54:35.947Z,100177.94
2022-11-21T14:57:10.389Z,100200.13
2022-11-21T14:59:43.122Z,100204.88
2022-11-21T15:02:18.705Z,100216.81
2022-11-21T15:04:50.403Z,100217.66
2022-11-21T15:07:31.357Z,100226.47
2022-11-21T15:12:55.852Z,100244.16
2022-11-21T15:15:31.329Z,100247.56
2022-11-21T15:18:27.997Z,100253.59
2022-11-21T15:20:56.725Z,100271.66
2022-11-21T15:23:30.647Z,100277.56
2022-11-21T15:26:01.639Z,100289.69
2022-11-21T15:28:32.285Z,100288.41
2022-11-21T15:31:17.402Z,100292.53
2022-11-21T15:37:05.259Z,100288.66
2022-11-21T15:39:36.105Z,100283.97
2022-11-21T15:42:35.763Z,100304.88
2022-11-21T15:45:07.055Z,100298.94
2022-11-21T15:47:36.815Z,100295.25
2022-11-21T15:50:09.806Z,100292.16
2022-11-21T15:52:48.270Z,100300.06
2022-11-21T15:55:22.562Z,100294.25
2022-11-21T15:57:52.039Z,100296.94
2022-11-21T16:00:21.732Z,100303.28
2022-11-21T16:02:51.769Z,100296.84
2022-11-21T16:05:23.809Z,100295.72
2022-11-21T16:07:53.337Z,100286.66
2022-11-21T16:10:27.572Z,100287.44
2022-11-21T16:12:57.889Z,100283.84
2022-11-21T16:15:27.535Z,100274.38
2022-11-21T16:17:57.007Z,100263.47
2022-11-21T16:20:29.078Z,100244.50
2022-11-21T16:22:58.564Z,100186.47
2022-11-21T16:25:28.026Z,100154.81
2022-11-21T16:27:59.784Z,100144.69
2022-11-21T16:30:30.257Z,100139.25
2022-11-21T16:32:59.830Z,100126.03
2022-11-21T16:35:32.367Z,100116.47
2022-11-21T16:38:01.856Z,100114.88
2022-11-21T16:40:31.296Z,100111.09
2022-11-21T16:43:10.124Z,100107.56
2022-11-21T16:45:40.087Z,100106.03
2022-11-21T16:48:09.730Z,100105.84
2022-11-21T16:50:41.733Z,100098.78
2022-11-21T16:53:11.440Z,100066.34
2022-11-21T16:55:40.929Z,100034.97
2022-11-21T16:58:10.364Z,100025.97
2022-11-21T17:00:39.921Z,100017.09
2022-11-21T17:03:09.432Z,100020.13
2022-11-21T17:05:41.467Z,100031.97
2022-11-21T17:08:10.999Z,100030.25
2022-11-21T17:10:40.453Z,100027.09
2022-11-21T17:13:10.039Z,100028.91
2022-11-21T17:15:39.609Z,100039.69
2022-11-21T17:18:09.071Z,100040.94
2022-11-21T17:20:41.168Z,100022.34
2022-11-21T17:23:10.599Z,99991.97
2022-11-21T17:25:40.080Z,100005.25
2022-11-21T17:28:09.563Z,100015.28
2022-11-21T17:30:44.169Z,100017.16
2022-11-21T17:33:13.687Z,100015.00
2022-11-21T17:35:46.712Z,100037.50
2022-11-21T17:38:17.185Z,100064.72
2022-11-21T17:40:46.696Z,100078.88
2022-11-21T17:43:16.119Z,100094.38
2022-11-21T17:45:46.972Z,100118.72
2022-11-21T17:48:16.384Z,100122.94
2022-11-21T17:50:48.449Z,100131.78
2022-11-21T17:53:17.935Z,100134.75
2022-11-21T17:55:47.993Z,100142.75
2022-11-21T17:58:17.462Z,100125.00
2022-11-21T18:00:46.961Z,100111.53
2022-11-21T18:03:16.426Z,100113.38
2022-11-21T18:05:51.626Z,100109.44
2022-11-21T18:08:21.440Z,100100.47
2022-11-21T18:10:54.693Z,100090.84
2022-11-21T18:13:24.269Z,100087.03
2022-11-21T18:15:53.752Z,100089.28
2022-11-21T18:18:23.667Z,100075.97
2022-11-21T18:20:55.748Z,100080.25
2022-11-21T18:23:26.263Z,100073.69
2022-11-21T18:25:55.739Z,100065.75
2022-11-21T18:28:25.225Z,100054.41
2022-11-21T18:30:56.008Z,100052.44
2022-11-21T18:33:25.578Z,100041.97
2022-11-21T18:35:57.674Z,100031.66
2022-11-21T18:38:47.283Z,100018.00
2022-11-21T18:41:18.572Z,100012.31
2022-11-21T18:43:52.429Z,99992.47
2022-11-21T18:46:23.160Z,99991.34
2022-11-21T18:49:08.739Z,99986.44
2022-11-21T18:51:40.890Z,99958.53
2022-11-21T18:54:11.134Z,99952.41
2022-11-21T18:56:42.752Z,99928.97
2022-11-21T18:59:12.276Z,99925.72
2022-11-21T19:01:42.160Z,99924.28
2022-11-21T19:04:11.667Z,99912.53
2022-11-21T19:06:43.767Z,99912.91
2022-11-21T19:09:14.824Z,99902.31
2022-11-21T19:11:44.448Z,99890.22
2022-11-21T19:14:14.117Z,99878.72
2022-11-21T19:16:43.621Z,99860.56
2022-11-21T19:22:07.456Z,99853.13
2022-11-21T19:24:36.896Z,99845.31
2022-11-21T19:27:07.784Z,99834.84
2022-11-21T19:29:37.343Z,99831.31
2022-11-21T19:32:07.461Z,99829.13
2022-11-21T19:34:37.007Z,99823.44
2022-11-21T19:37:09.309Z,99829.03
2022-11-21T19:39:38.719Z,99814.88
2022-11-21T19:42:08.229Z,99818.31
2022-11-21T19:44:37.624Z,99820.06
2022-11-21T19:47:07.110Z,99821.19
2022-11-21T19:49:36.566Z,99820.06
2022-11-21T19:52:08.804Z,99819.44
2022-11-21T19:54:38.440Z,99814.38
2022-11-21T19:57:13.518Z,99810.47
2022-11-21T19:59:46.615Z,99809.69
2022-11-21T20:02:19.346Z,99805.53
2022-11-21T20:04:48.992Z,99808.34
2022-11-21T20:07:21.222Z,99805.56
2022-11-21T20:09:50.712Z,99809.09
2022-11-21T20:12:20.153Z,99807.81
2022-11-21T20:14:49.616Z,99802.53
2022-11-21T20:17:19.252Z,99789.13
2022-11-21T20:19:50.755Z,99792.44
2022-11-21T20:22:23.266Z,99802.53
2022-11-21T20:24:52.678Z,99789.41
2022-11-21T20:27:22.248Z,99788.66
2022-11-21T20:29:51.696Z,99792.56
2022-11-21T20:32:21.218Z,99781.56
2022-11-21T20:34:50.740Z,99787.03
2022-11-21T20:37:23.007Z,99769.19
2022-11-21T20:39:52.542Z,99778.56
2022-11-21T20:42:22.015Z,99782.69
2022-11-21T20:47:40.939Z,99796.09
2022-11-21T20:50:25.742Z,99792.91
2022-11-21T20:55:54.707Z,99801.41
2022-11-21T20:58:24.179Z,99798.75
2022-11-21T21:00:53.697Z,99807.84
2022-11-21T21:03:23.173Z,99804.06
2022-11-21T21:05:57.205Z,99812.28
2022-11-21T21:08:30.384Z,99803.72
2022-11-21T21:11:06.345Z,99812.63
2022-11-21T21:13:36.587Z,99806.31
2022-11-21T21:16:07.501Z,99796.75
2022-11-21T21:18:37.776Z,99795.09
2022-11-21T21:21:16.839Z,99782.88
2022-11-21T21:23:51.021Z,99785.41
2022-11-21T21:26:22.786Z,99784.78
2022-11-21T21:28:52.433Z,99774.03
2022-11-21T21:31:24.166Z,99763.31
2022-11-21T21:33:53.928Z,99754.34
2022-11-21T21:36:25.394Z,99741.72
2022-11-21T21:38:59.149Z,99747.69
2022-11-21T21:41:30.683Z,99751.06
2022-11-21T21:44:00.549Z,99748.19
2022-11-21T21:46:30.572Z,99739.50
2022-11-21T21:49:00.754Z,99725.72
2022-11-21T21:51:31.514Z,99726.84
2022-11-21T21:54:03.590Z,99724.06
2022-11-21T21:56:33.631Z,99745.91
2022-11-21T21:59:03.148Z,99751.06
2022-11-21T22:01:34.209Z,99739.09
2022-11-21T22:04:05.256Z,99746.56
2022-11-21T22:06:35.955Z,99754.84
2022-11-21T22:09:07.992Z,99746.16
2022-11-21T22:11:39.420Z,99743.78
2022-11-21T22:14:13.331Z,99746.56
2022-11-21T22:16:43.159Z,99757.50
2022-11-21T22:19:12.718Z,99754.13
2022-11-21T22:21:42.427Z,99763.47
2022-11-21T22:24:27.167Z,99764.09
2022-11-21T22:26:57.495Z,99765.44
2022-11-21T22:29:26.974Z,99748.28
2022-11-21T22:31:56.547Z,99750.06
2022-11-21T22:34:26.675Z,99754.34
2022-11-21T22:36:56.224Z,99765.31
2022-11-21T22:39:28.371Z,99755.22
2022-11-21T22:41:59.991Z,99749.28
2022-11-21T22:44:29.854Z,99755.06
2022-11-21T22:46:59.732Z,99744.97
2022-11-21T22:49:29.275Z,99739.19
2022-11-21T22:51:58.837Z,99734.50
2022-11-21T22:54:31.241Z,99724.06
2022-11-21T22:57:00.882Z,99723.16
2022-11-21T22:59:30.400Z,99723.28
2022-11-21T23:02:00.008Z,99721.81
2022-11-21T23:04:29.632Z,99715.47
2022-11-21T23:07:00.134Z,99719.66
2022-11-21T23:09:32.420Z,99715.94
2022-11-21T23:12:02.038Z,99712.69
2022-11-21T23:14:31.560Z,99715.59
2022-11-21T23:17:01.396Z,99714.94
2022-11-21T23:19:31.181Z,99695.53
2022-11-21T23:22:01.139Z,99707.16
2022-11-21T23:24:33.214Z,99699.81
2022-11-21T23:27:02.757Z,99706.75
2022-11-21T23:29:32.412Z,99694.88
2022-11-21T23:32:01.935Z,99704.72
2022-11-21T23:34:31.404Z,99689.34
2022-11-21T23:37:00.921Z,99692.88
2022-11-21T23:39:33.032Z,99692.84
2022-11-21T23:42:02.561Z,99685.41
2022-11-21T23:44:32.245Z,99687.66
2022-11-21T23:47:01.732Z,99688.19
2022-11-21T23:49:31.425Z,99683.66
2022-11-21T23:52:01.116Z,99668.22
2022-11-21T23:54:33.237Z,99654.34
2022-11-21T23:57:03.035Z,99644.31
2022-11-21T23:59:32.769Z,99651.91
